CLT TRACON Summary / KCLT TAF
CLT TRACON Summary:
Expect VFR conditions as high clouds spread across the CLT TRACON airspace. Surface winds will start out north and transition to southwest at 5kts after 16z. No significant flight hazards are expected in the TRACON Airspace.

Updated: 10/24/2014 6:00 AM
CLT Terminal Aerodrome Forecast:

FTUS42 KGSP 241455 AAA
TAFCLT
TAF AMD
KCLT 241455Z 2415/2512 04003KT P6SM BKN160
     FM242000 23003KT P6SM SCT170
     FM250400 34003KT P6SM SKC=
CLT TRACON Area Remark:
NONE.
Convective Gate Forecast / Collaborative Convective Forecast Product / Vertical Wind Profile
Convective Gate Forecast
SIGMETS/ Southeast Radar & Satellite Loops (click on image to enlarge)

Southeast Radar Loop

 



USA.gov is the U.S. government's official web portal to all federal, state and local government web resources and services.